La Guardia Airport

KLGA · 纽约州, 美国

罗盘
风向 的 风向 300° La Guardia Airport 13/31
风: 9 kt, 3 beaufort

9 kt

改变
0 ft 6.000 12.000 18.000 24.000 30.000
Cloud Cloud
FEW 25.000
METAR KLGA 220751Z 30009KT 10SM FEW250 07/M04 A3000 RMK AO2 SLP158 T00721039 $

METAR La Guardia Airport - KLGA/LGA

La Guardia Airport是,美国中的大型机场。 该机场位于纬度40,77725和经度-73,87261。 该机场有2条跑道: 13/31 和 4/22. 本场的ICAO机场代码为KLGA。 该机场的本地机场标识(FAA LID)为LGA。 该机场的IATA代码为LGA。 机场在New York FIR中。

该航空气象观测是针对La Guardia Airport在2024年4月22日 03:51, 当地时间进行的。

机场观察

风向为300°,速度为9 kt。

可见度为10 mi。

有几云在25.000 ft的高度。 没有观察到天花板。

温度为7 °C,阵风为3 °C。 露点为-4 °C,相对湿度为46%。 海平面上的气压为30,00 inHg (QNH)。

白天

今天,太阳从06:05升起,在19:42降落。 这适用于La Guardia Airport,世界夏令时可能有所不同。 当地时间与世界标准时间之间的时差为-4 小时。 夏令时目前正在进行中。

公司介绍

在这个机场,你可以找到飞行学校。 本场上唯一已知的公司是Vaughn College of Aeronautics and Technology。

体会

到Vliegles.nl去找飞行课程,跳伞和其他飞行体验。 浏览页面,了解La Guardia Airport附近所有可用的活动。 你也可以使用搜索功能来寻找你所在地附近的特定飞行课程、跳伞或其他飞行体验。

跑道

Id 标题 侧风 逆风 侧风 %
13/31 122°-302° 9 kt 3 %
4/22 032°-212° 9 kt 100 %

逆风成分最大的方向会被突出显示,并用于横风计算。 这并不一定意味着这个方向在使用。

乌云

25.000 ft FEW 几云

温度 & 天气

温度 7,2 °C
露点 -3,9 °C
相对湿度 46%
风寒 3 °C
Kp-index 3 (0-9)

评论

AO2自动气象站,可确定降水类型
SLP158海平面压力为30,00 inHg (30,00 inHg)
T00721039温度为7,2 °C (45,0 °F),露点为-3,9 °C (25,0 °F)
$该气象站需要维护

白天

日出
06:05 (1:38)
中午
12:53
日落
19:42

小工具

你想在你的网站上有一个关于La Guardia Airport的当前航空天气(METAR)的小部件吗?

显示HTML代码
报告变更